Terminal Aerodrome Forecast
Issued by NWS

Home | Current Version | Previous Version | Graphics & Text | Print | Product List | Glossary On
Versions: 1 2 3 4 5 6 7 8 9 10 11 12 13 14 15 16 17
000
FTUS43 KBIS 202330
TAFJMS
TAF
KJMS 202330Z 2100/2124 31015KT P6SM SCT100
     FM210300 34012KT P6SM SCT200
     FM211300 36008KT P6SM BKN130
     FM211600 02008KT P6SM SCT100
     FM212100 03009KT P6SM SCT150=

USA.gov is the U.S. government's official web portal to all federal, state and local government web resources and services.